VOE34KY LFKF-EBCI
Flight info
| Callsign | VOE34KY |
|---|---|
| Flight time | N/A |
| Altitude | 32000 |
| Route | LONSU M622 PIGOS DCT BARSO DCT IRMAR DCT KINES DCT VANAS DCT MOBLO DCT UBIMA/N0411F280 DCT GILIR DCT PENDU DCT IXILU DCT GIVOR DCT SORAL DCT IBERA DCT DIK Y37 BATTY |
| Aircraft | A320/M-SDE3FGHIRWY/LB1 |
Departure
| Time | N/A |
|---|---|
| Airport | Figari Sud-Corse Airport (LFKF) |
Arrival
| Time | 2026-05-04 14:09 |
|---|---|
| Airport | Brussels South Charleroi Airport (EBCI) |
| Time | Latitude | Longitude | Altitude | Speed | Heading |
|---|---|---|---|---|---|
| 2026-05-04 13:34 | 49.63480 | 6.22319 | 32015 ft | 459 kts | 341° |
| 2026-05-04 13:34 | 49.69625 | 6.19793 | 32017 ft | 459 kts | 341° |
| 2026-05-04 13:35 | 49.78912 | 6.15959 | 31665 ft | 458 kts | 341° |
| 2026-05-04 13:35 | 49.81993 | 6.14685 | 31405 ft | 456 kts | 341° |
| 2026-05-04 13:36 | 49.85031 | 6.13426 | 31152 ft | 454 kts | 341° |
| 2026-05-04 13:36 | 49.88094 | 6.12188 | 30899 ft | 453 kts | 342° |
| 2026-05-04 13:36 | 49.91168 | 6.11054 | 30644 ft | 452 kts | 344° |
| 2026-05-04 13:36 | 49.94191 | 6.10013 | 30402 ft | 450 kts | 345° |
| 2026-05-04 13:37 | 49.97257 | 6.08989 | 30153 ft | 449 kts | 345° |
| 2026-05-04 13:37 | 50.00307 | 6.07970 | 29887 ft | 447 kts | 345° |
| 2026-05-04 13:37 | 50.03344 | 6.06935 | 29605 ft | 445 kts | 344° |
| 2026-05-04 13:37 | 50.06366 | 6.05882 | 29323 ft | 444 kts | 344° |
| 2026-05-04 13:38 | 50.09377 | 6.04816 | 29042 ft | 442 kts | 344° |
| 2026-05-04 13:38 | 50.12363 | 6.03749 | 28766 ft | 440 kts | 344° |
| 2026-05-04 13:38 | 50.15349 | 6.02680 | 28492 ft | 438 kts | 344° |
| 2026-05-04 13:38 | 50.18273 | 6.01634 | 28224 ft | 436 kts | 344° |
| 2026-05-04 13:39 | 50.21233 | 6.00574 | 27955 ft | 434 kts | 344° |
| 2026-05-04 13:39 | 50.24185 | 5.99520 | 27677 ft | 433 kts | 344° |
| 2026-05-04 13:39 | 50.27121 | 5.98472 | 27432 ft | 431 kts | 344° |
| 2026-05-04 13:39 | 50.30046 | 5.97427 | 27163 ft | 429 kts | 344° |
| 2026-05-04 13:40 | 50.32958 | 5.96388 | 26902 ft | 428 kts | 344° |
| 2026-05-04 13:40 | 50.35817 | 5.95368 | 26651 ft | 426 kts | 344° |
| 2026-05-04 13:40 | 50.38702 | 5.94335 | 26399 ft | 424 kts | 344° |
| 2026-05-04 13:40 | 50.41576 | 5.93301 | 26143 ft | 422 kts | 344° |
| 2026-05-04 13:41 | 50.44438 | 5.92272 | 25886 ft | 419 kts | 344° |
| 2026-05-04 13:41 | 50.47252 | 5.91261 | 24681 ft | 413 kts | 344° |
| 2026-05-04 13:41 | 50.50058 | 5.90243 | 23184 ft | 414 kts | 344° |
| 2026-05-04 13:42 | 50.55621 | 5.88194 | 20139 ft | 409 kts | 345° |
| 2026-05-04 13:42 | 50.58376 | 5.87166 | 18781 ft | 403 kts | 345° |
| 2026-05-04 13:42 | 50.60963 | 5.85588 | 16900 ft | 400 kts | 327° |
| 2026-05-04 13:42 | 50.63142 | 5.82888 | 14942 ft | 397 kts | 317° |
| 2026-05-04 13:43 | 50.65222 | 5.79971 | 12676 ft | 402 kts | 318° |
| 2026-05-04 13:43 | 50.67324 | 5.77065 | 10412 ft | 398 kts | 311° |
| 2026-05-04 13:43 | 50.68751 | 5.73426 | 9020 ft | 376 kts | 298° |
| 2026-05-04 13:43 | 50.69938 | 5.69953 | 8273 ft | 359 kts | 297° |
| 2026-05-04 13:44 | 50.71057 | 5.66505 | 8005 ft | 345 kts | 295° |
| 2026-05-04 13:44 | 50.72064 | 5.63185 | 7994 ft | 325 kts | 294° |
| 2026-05-04 13:44 | 50.73004 | 5.60049 | 8002 ft | 306 kts | 294° |
| 2026-05-04 13:44 | 50.73897 | 5.57104 | 8002 ft | 289 kts | 295° |
| 2026-05-04 13:45 | 50.74770 | 5.54277 | 8003 ft | 284 kts | 295° |
| 2026-05-04 13:45 | 50.75638 | 5.51506 | 8002 ft | 283 kts | 296° |
| 2026-05-04 13:45 | 50.76516 | 5.48721 | 8001 ft | 283 kts | 296° |
| 2026-05-04 13:45 | 50.77401 | 5.45933 | 8001 ft | 283 kts | 296° |
| 2026-05-04 13:46 | 50.78285 | 5.43155 | 7997 ft | 283 kts | 296° |
| 2026-05-04 13:46 | 50.79173 | 5.40369 | 8001 ft | 283 kts | 296° |
| 2026-05-04 13:46 | 50.80050 | 5.37613 | 8002 ft | 283 kts | 296° |
| 2026-05-04 13:46 | 50.80929 | 5.34837 | 7995 ft | 282 kts | 296° |
| 2026-05-04 13:47 | 50.81807 | 5.32057 | 7995 ft | 282 kts | 296° |
| 2026-05-04 13:47 | 50.82687 | 5.29270 | 7999 ft | 282 kts | 296° |
| 2026-05-04 13:47 | 50.83565 | 5.26482 | 7996 ft | 282 kts | 296° |
| 2026-05-04 13:47 | 50.84440 | 5.23709 | 8001 ft | 282 kts | 296° |
| 2026-05-04 13:48 | 50.85319 | 5.20929 | 7996 ft | 282 kts | 296° |
| 2026-05-04 13:48 | 50.86189 | 5.18177 | 7996 ft | 282 kts | 296° |
| 2026-05-04 13:48 | 50.86972 | 5.15331 | 7995 ft | 282 kts | 289° |
| 2026-05-04 13:48 | 50.87528 | 5.12347 | 7989 ft | 281 kts | 282° |
| 2026-05-04 13:49 | 50.87848 | 5.09332 | 7995 ft | 281 kts | 275° |
| 2026-05-04 13:49 | 50.87993 | 5.06235 | 7990 ft | 281 kts | 273° |
| 2026-05-04 13:49 | 50.88130 | 5.03139 | 7993 ft | 281 kts | 273° |
| 2026-05-04 13:49 | 50.88268 | 5.00050 | 7993 ft | 281 kts | 274° |
| 2026-05-04 13:50 | 50.88407 | 4.96963 | 7999 ft | 281 kts | 274° |
| 2026-05-04 13:50 | 50.88541 | 4.93910 | 8000 ft | 281 kts | 273° |
| 2026-05-04 13:50 | 50.88676 | 4.90817 | 7992 ft | 281 kts | 273° |
| 2026-05-04 13:50 | 50.88812 | 4.87721 | 8001 ft | 281 kts | 274° |
| 2026-05-04 13:51 | 50.88946 | 4.84641 | 7999 ft | 280 kts | 274° |
| 2026-05-04 13:51 | 50.89077 | 4.81590 | 7996 ft | 280 kts | 274° |
| 2026-05-04 13:51 | 50.89209 | 4.78509 | 7995 ft | 280 kts | 274° |
| 2026-05-04 13:51 | 50.89340 | 4.75416 | 8000 ft | 280 kts | 273° |
| 2026-05-04 13:52 | 50.89599 | 4.69249 | 7997 ft | 280 kts | 273° |
| 2026-05-04 13:52 | 50.89729 | 4.66171 | 7998 ft | 280 kts | 274° |
| 2026-05-04 13:52 | 50.89858 | 4.63077 | 8000 ft | 280 kts | 274° |
| 2026-05-04 13:53 | 50.89852 | 4.60031 | 8001 ft | 280 kts | 264° |
| 2026-05-04 13:53 | 50.89480 | 4.57003 | 8003 ft | 280 kts | 253° |
| 2026-05-04 13:53 | 50.88756 | 4.54134 | 8002 ft | 280 kts | 242° |
| 2026-05-04 13:54 | 50.86393 | 4.49313 | 8000 ft | 280 kts | 221° |
| 2026-05-04 13:54 | 50.84853 | 4.47423 | 8002 ft | 280 kts | 216° |
| 2026-05-04 13:54 | 50.81724 | 4.43720 | 8009 ft | 280 kts | 217° |
| 2026-05-04 13:55 | 50.80168 | 4.41869 | 8003 ft | 280 kts | 217° |
| 2026-05-04 13:55 | 50.77061 | 4.38181 | 7993 ft | 280 kts | 217° |
| 2026-05-04 13:55 | 50.75493 | 4.36324 | 8000 ft | 280 kts | 217° |
| 2026-05-04 13:56 | 50.73934 | 4.34481 | 7993 ft | 280 kts | 217° |
| 2026-05-04 13:56 | 50.72329 | 4.32731 | 7998 ft | 280 kts | 208° |
| 2026-05-04 13:56 | 50.68622 | 4.31007 | 7993 ft | 280 kts | 183° |
| 2026-05-04 13:57 | 50.66676 | 4.31165 | 7998 ft | 280 kts | 170° |
| 2026-05-04 13:57 | 50.64793 | 4.31995 | 7998 ft | 280 kts | 158° |
| 2026-05-04 13:58 | 50.59369 | 4.35421 | 7999 ft | 281 kts | 158° |
| 2026-05-04 13:58 | 50.55722 | 4.37694 | 8004 ft | 281 kts | 158° |
| 2026-05-04 13:58 | 50.53949 | 4.38800 | 8005 ft | 281 kts | 158° |
| 2026-05-04 13:59 | 50.52102 | 4.39955 | 8006 ft | 281 kts | 158° |
| 2026-05-04 13:59 | 50.50277 | 4.41093 | 8000 ft | 281 kts | 158° |
| 2026-05-04 13:59 | 50.46882 | 4.44046 | 8003 ft | 281 kts | 135° |
| 2026-05-04 14:00 | 50.45717 | 4.46504 | 8007 ft | 281 kts | 117° |
| 2026-05-04 14:00 | 50.44878 | 4.52403 | 7999 ft | 281 kts | 95° |
| 2026-05-04 14:00 | 50.44689 | 4.55464 | 7906 ft | 281 kts | 95° |
| 2026-05-04 14:01 | 50.44493 | 4.58525 | 7780 ft | 281 kts | 96° |
| 2026-05-04 14:01 | 50.44296 | 4.61575 | 7653 ft | 280 kts | 96° |
| 2026-05-04 14:01 | 50.43967 | 4.67661 | 7164 ft | 279 kts | 88° |
| 2026-05-04 14:02 | 50.44262 | 4.70620 | 6735 ft | 278 kts | 73° |
| 2026-05-04 14:02 | 50.44995 | 4.73428 | 6266 ft | 279 kts | 65° |
| 2026-05-04 14:02 | 50.45893 | 4.76083 | 5988 ft | 272 kts | 55° |
| 2026-05-04 14:02 | 50.47167 | 4.78261 | 5598 ft | 270 kts | 39° |
| 2026-05-04 14:03 | 50.48850 | 4.79633 | 4991 ft | 277 kts | 14° |
| 2026-05-04 14:03 | 50.50744 | 4.79716 | 4710 ft | 268 kts | 348° |
| 2026-05-04 14:03 | 50.52409 | 4.78648 | 4654 ft | 252 kts | 324° |
| 2026-05-04 14:03 | 50.53628 | 4.76830 | 4582 ft | 235 kts | 300° |
| 2026-05-04 14:04 | 50.53792 | 4.72394 | 4225 ft | 208 kts | 238° |
| 2026-05-04 14:04 | 50.53022 | 4.70470 | 3841 ft | 206 kts | 241° |
| 2026-05-04 14:04 | 50.52427 | 4.68445 | 3529 ft | 201 kts | 246° |
| 2026-05-04 14:05 | 50.51495 | 4.64460 | 3000 ft | 184 kts | 246° |
| 2026-05-04 14:05 | 50.51005 | 4.62684 | 2752 ft | 170 kts | 245° |
| 2026-05-04 14:05 | 50.50538 | 4.61042 | 2530 ft | 159 kts | 245° |
| 2026-05-04 14:06 | 50.50097 | 4.59504 | 2317 ft | 151 kts | 244° |
| 2026-05-04 14:06 | 50.49674 | 4.58036 | 2121 ft | 144 kts | 244° |
| 2026-05-04 14:06 | 50.49274 | 4.56649 | 2035 ft | 140 kts | 245° |
| 2026-05-04 14:06 | 50.48870 | 4.55253 | 1998 ft | 140 kts | 245° |
| 2026-05-04 14:07 | 50.48474 | 4.53854 | 1747 ft | 140 kts | 245° |
| 2026-05-04 14:07 | 50.48084 | 4.52461 | 1444 ft | 138 kts | 243° |
| 2026-05-04 14:07 | 50.47668 | 4.51092 | 1305 ft | 139 kts | 244° |
| 2026-05-04 14:07 | 50.47272 | 4.49714 | 1082 ft | 140 kts | 244° |
| 2026-05-04 14:08 | 50.46862 | 4.48310 | 836 ft | 142 kts | 243° |
| 2026-05-04 14:08 | 50.46453 | 4.46907 | 648 ft | 140 kts | 244° |
| 2026-05-04 14:08 | 50.46123 | 4.45756 | 614 ft | 64 kts | 245° |
| 2026-05-04 14:08 | 50.45960 | 4.45209 | 614 ft | 53 kts | 246° |
| 2026-05-04 14:09 | 50.45929 | 4.44794 | 619 ft | 0 kts | 331° |
| 2026-05-04 14:09 | 50.45933 | 4.44790 | 619 ft | 1 kts | 331° |
| 2026-05-04 14:10 | 50.45950 | 4.44775 | 621 ft | 2 kts | 331° |
| 2026-05-04 14:10 | 50.45961 | 4.44766 | 616 ft | 2 kts | 330° |
| 2026-05-04 14:10 | 50.45969 | 4.44758 | 613 ft | 1 kts | 330° |
| 2026-05-04 14:10 | 50.45984 | 4.44752 | 622 ft | 5 kts | 354° |
| 2026-05-04 14:11 | 50.46035 | 4.44832 | 616 ft | 16 kts | 62° |
| 2026-05-04 14:11 | 50.46179 | 4.45331 | 613 ft | 33 kts | 65° |
| 2026-05-04 14:11 | 50.46273 | 4.45653 | 621 ft | 28 kts | 65° |
| 2026-05-04 14:12 | 50.46347 | 4.45908 | 621 ft | 25 kts | 65° |
| 2026-05-04 14:12 | 50.46425 | 4.46177 | 624 ft | 28 kts | 65° |
| 2026-05-04 14:12 | 50.46568 | 4.46554 | 614 ft | 11 kts | 351° |
| 2026-05-04 14:13 | 50.46649 | 4.46550 | 620 ft | 14 kts | 50° |
| 2026-05-04 14:13 | 50.46696 | 4.46706 | 620 ft | 18 kts | 65° |
| 2026-05-04 14:13 | 50.46751 | 4.46895 | 621 ft | 8 kts | 59° |
| 2026-05-04 14:13 | 50.46789 | 4.46887 | 619 ft | 6 kts | 333° |
| 2026-05-04 14:14 | 50.46807 | 4.46873 | 620 ft | 0 kts | 335° |